createdAt,value
2019-01-27T00:01:56.370Z,34.87
2019-01-27T00:04:25.880Z,37.90
2019-01-27T00:06:55.400Z,37.93
2019-01-27T00:09:24.881Z,38.77
2019-01-27T00:11:54.445Z,37.17
2019-01-27T00:14:23.945Z,39.47
2019-01-27T00:16:53.449Z,39.57
2019-01-27T00:19:22.954Z,39.40
2019-01-27T00:21:52.463Z,38.53
2019-01-27T00:24:21.832Z,36.60
2019-01-27T00:26:51.331Z,37.10
2019-01-27T00:29:20.794Z,35.33
2019-01-27T00:31:50.267Z,35.33
2019-01-27T00:34:19.802Z,36.63
2019-01-27T00:36:49.226Z,33.90
2019-01-27T00:39:18.678Z,36.50
2019-01-27T00:41:48.246Z,35.27
2019-01-27T00:44:17.650Z,34.80
2019-01-27T00:46:46.983Z,34.10
2019-01-27T00:49:16.442Z,34.37
2019-01-27T00:51:45.883Z,33.50
2019-01-27T00:54:15.424Z,34.90
2019-01-27T00:56:44.887Z,33.17
2019-01-27T00:59:14.359Z,33.50
2019-01-27T01:01:43.883Z,34.80
2019-01-27T01:04:13.395Z,33.37
2019-01-27T01:06:43.055Z,32.37
2019-01-27T01:09:12.758Z,33.60
2019-01-27T01:11:42.289Z,32.50
2019-01-27T01:14:11.893Z,32.40
2019-01-27T01:16:41.427Z,32.23
2019-01-27T01:19:10.901Z,33.33
2019-01-27T01:21:40.454Z,31.97
2019-01-27T01:24:09.963Z,31.00
2019-01-27T01:26:39.415Z,31.57
2019-01-27T01:29:08.913Z,32.00
2019-01-27T01:31:38.488Z,32.00
2019-01-27T01:34:08.011Z,31.63
2019-01-27T01:36:37.548Z,31.67
2019-01-27T01:39:09.151Z,29.70
2019-01-27T01:41:38.653Z,31.03
2019-01-27T01:44:08.168Z,30.93
2019-01-27T01:46:37.663Z,30.40
2019-01-27T01:49:07.012Z,31.23
2019-01-27T01:51:36.559Z,30.17
2019-01-27T01:54:06.177Z,30.70
2019-01-27T01:56:35.600Z,30.50
2019-01-27T01:59:05.182Z,30.40
2019-01-27T02:01:34.710Z,30.50
2019-01-27T02:04:04.833Z,30.23
2019-01-27T02:06:34.408Z,30.60
2019-01-27T02:09:07.202Z,30.73
2019-01-27T02:11:36.612Z,29.73
2019-01-27T02:14:06.422Z,28.80
2019-01-27T02:16:35.799Z,32.00
2019-01-27T02:19:05.440Z,30.10
2019-01-27T02:21:36.485Z,29.77
2019-01-27T02:24:06.307Z,29.23
2019-01-27T02:26:35.703Z,30.83
2019-01-27T02:29:05.725Z,30.17
2019-01-27T02:31:35.070Z,30.60
2019-01-27T02:34:04.484Z,31.80
2019-01-27T02:36:33.991Z,30.00
2019-01-27T02:39:03.882Z,32.13
2019-01-27T02:41:33.326Z,30.43
2019-01-27T02:44:02.763Z,30.70
2019-01-27T02:46:32.205Z,30.77
2019-01-27T02:49:01.649Z,29.20
2019-01-27T02:51:31.074Z,29.43
2019-01-27T02:54:00.537Z,30.17
2019-01-27T02:56:29.926Z,30.60
2019-01-27T02:58:59.318Z,29.43
2019-01-27T03:01:28.757Z,29.87
2019-01-27T03:03:58.160Z,29.10
2019-01-27T03:06:42.259Z,31.03
2019-01-27T03:09:20.956Z,28.77
2019-01-27T03:11:51.326Z,28.17
2019-01-27T03:14:21.480Z,27.23
2019-01-27T03:16:54.749Z,28.43
2019-01-27T03:19:24.126Z,28.50
2019-01-27T03:21:53.707Z,26.80
2019-01-27T03:24:24.381Z,27.93
2019-01-27T03:26:55.942Z,25.53
2019-01-27T03:29:25.368Z,24.30
2019-01-27T03:31:54.777Z,25.03
2019-01-27T03:34:24.157Z,24.67
2019-01-27T03:36:53.639Z,24.80
2019-01-27T03:39:22.993Z,23.90
2019-01-27T03:41:52.713Z,24.80
2019-01-27T03:44:22.108Z,22.60
2019-01-27T03:46:51.567Z,22.97
2019-01-27T03:49:20.960Z,23.73
2019-01-27T03:51:50.339Z,22.33
2019-01-27T03:54:19.719Z,22.80
2019-01-27T03:56:49.102Z,23.03
2019-01-27T03:59:18.604Z,22.50
2019-01-27T04:01:48.055Z,21.77
2019-01-27T04:04:17.507Z,21.67
2019-01-27T04:06:46.975Z,21.37
2019-01-27T04:09:16.491Z,22.20
2019-01-27T04:11:45.877Z,20.77
2019-01-27T04:14:15.386Z,20.57
2019-01-27T04:16:44.827Z,20.73
2019-01-27T04:19:14.268Z,21.60
2019-01-27T04:21:43.677Z,22.13
2019-01-27T04:24:13.118Z,21.70
2019-01-27T04:26:42.460Z,20.77
2019-01-27T04:29:11.866Z,21.00
2019-01-27T04:31:41.239Z,21.37
2019-01-27T04:34:10.707Z,23.70
2019-01-27T04:36:40.122Z,22.40
2019-01-27T04:39:10.809Z,21.60
2019-01-27T04:41:40.234Z,21.93
2019-01-27T04:44:09.607Z,22.30
2019-01-27T04:46:39.040Z,20.10
2019-01-27T04:49:08.584Z,26.17
2019-01-27T04:51:38.047Z,23.10
2019-01-27T04:54:07.612Z,22.33
2019-01-27T04:56:37.168Z,23.47
2019-01-27T04:59:06.917Z,21.97
2019-01-27T05:01:36.372Z,21.73
2019-01-27T05:04:30.808Z,21.43
2019-01-27T05:07:00.264Z,19.73
2019-01-27T05:09:30.049Z,20.53
2019-01-27T05:11:59.608Z,20.07
2019-01-27T05:14:30.586Z,20.17
2019-01-27T05:17:00.064Z,19.70
2019-01-27T05:19:29.632Z,17.80
2019-01-27T05:21:59.219Z,18.43
2019-01-27T05:24:28.725Z,17.40
2019-01-27T05:26:58.428Z,17.23
2019-01-27T05:29:29.845Z,18.87
2019-01-27T05:31:59.126Z,17.10
2019-01-27T05:34:28.600Z,15.73
2019-01-27T05:36:58.043Z,18.60
2019-01-27T05:39:27.559Z,17.23
2019-01-27T05:41:57.051Z,16.13
2019-01-27T05:44:26.610Z,16.00
2019-01-27T05:46:56.135Z,15.87
2019-01-27T05:49:25.629Z,15.70
2019-01-27T05:51:55.138Z,15.60
2019-01-27T05:54:24.679Z,16.50
2019-01-27T05:56:56.673Z,15.53
2019-01-27T05:59:25.454Z,15.27
2019-01-27T06:01:55.034Z,14.73
2019-01-27T06:04:24.689Z,13.63
2019-01-27T06:06:54.193Z,13.10
2019-01-27T06:09:23.647Z,13.13
2019-01-27T06:11:53.103Z,12.77
2019-01-27T06:14:22.572Z,13.10
2019-01-27T06:16:52.169Z,13.87
2019-01-27T06:19:21.751Z,13.10
2019-01-27T06:21:51.161Z,14.27
2019-01-27T06:24:20.605Z,12.67
2019-01-27T06:26:50.099Z,13.40
2019-01-27T06:29:19.694Z,13.33
2019-01-27T06:31:49.132Z,12.93
2019-01-27T06:34:20.245Z,13.47
2019-01-27T06:36:49.641Z,13.20
2019-01-27T06:39:19.153Z,13.07
2019-01-27T06:41:48.703Z,14.07
2019-01-27T06:44:18.225Z,14.90
2019-01-27T06:46:47.729Z,15.10
2019-01-27T06:49:17.184Z,13.33
2019-01-27T06:51:47.591Z,14.73
2019-01-27T06:54:16.901Z,15.80
2019-01-27T06:56:46.248Z,15.00
2019-01-27T06:59:43.588Z,16.73
2019-01-27T07:02:29.522Z,16.60
2019-01-27T07:05:25.177Z,16.37
2019-01-27T07:08:03.601Z,14.23
2019-01-27T07:10:54.929Z,13.17
2019-01-27T07:13:40.499Z,12.03
2019-01-27T07:16:27.416Z,11.77
2019-01-27T07:19:21.593Z,13.47
2019-01-27T07:22:12.785Z,12.90
2019-01-27T07:25:01.147Z,12.47
2019-01-27T07:27:39.808Z,11.50
2019-01-27T07:30:33.017Z,12.17
2019-01-27T07:33:16.301Z,11.63
2019-01-27T07:36:10.599Z,11.87
2019-01-27T07:38:48.351Z,11.70
2019-01-27T07:41:29.431Z,10.80
2019-01-27T07:44:09.520Z,11.43
2019-01-27T07:46:56.528Z,11.60
2019-01-27T07:49:32.611Z,11.40
2019-01-27T07:52:20.077Z,11.63
2019-01-27T07:55:00.298Z,12.03
2019-01-27T07:57:38.939Z,11.03
2019-01-27T08:00:32.630Z,10.77
2019-01-27T08:03:26.635Z,11.40
2019-01-27T08:06:04.536Z,11.57
2019-01-27T08:08:40.360Z,11.43
2019-01-27T08:11:27.363Z,10.60
2019-01-27T08:14:24.614Z,12.67
2019-01-27T08:17:11.995Z,12.70
2019-01-27T08:20:00.278Z,12.70
2019-01-27T08:22:48.582Z,12.10
2019-01-27T08:25:35.204Z,12.20
2019-01-27T08:28:22.815Z,12.53
2019-01-27T08:31:07.104Z,12.87
2019-01-27T08:34:13.776Z,12.97
2019-01-27T08:37:07.981Z,12.73
2019-01-27T08:39:55.071Z,12.20
2019-01-27T08:42:43.359Z,12.80
2019-01-27T08:45:16.774Z,12.53
2019-01-27T08:47:46.105Z,11.70
2019-01-27T08:50:17.642Z,11.47
2019-01-27T08:52:47.085Z,9.90
2019-01-27T08:55:16.809Z,11.07
2019-01-27T08:57:46.270Z,12.13
2019-01-27T09:00:18.715Z,12.73
2019-01-27T09:03:22.145Z,10.67
2019-01-27T09:06:11.702Z,10.77
2019-01-27T09:08:51.933Z,10.20
2019-01-27T09:11:46.013Z,10.43
2019-01-27T09:14:34.380Z,9.60
2019-01-27T09:17:22.691Z,10.40
2019-01-27T09:20:02.677Z,10.90
2019-01-27T09:23:03.095Z,10.03
2019-01-27T09:26:00.740Z,10.13
2019-01-27T09:28:38.710Z,10.67
2019-01-27T09:31:19.144Z,10.30
2019-01-27T09:34:13.304Z,9.73
2019-01-27T09:36:53.355Z,10.27
2019-01-27T09:39:48.985Z,10.97
2019-01-27T09:42:40.286Z,10.47
2019-01-27T09:45:32.296Z,11.13
2019-01-27T09:48:26.548Z,11.07
2019-01-27T09:51:15.683Z,10.13
2019-01-27T09:53:55.196Z,10.23
2019-01-27T09:56:46.541Z,11.90
2019-01-27T09:59:23.517Z,11.10
2019-01-27T10:02:10.519Z,12.20
2019-01-27T10:04:45.008Z,12.30
2019-01-27T10:07:24.886Z,11.80
2019-01-27T10:10:19.350Z,10.90
2019-01-27T10:13:08.126Z,10.77
2019-01-27T10:15:59.542Z,12.17
2019-01-27T10:18:42.043Z,11.30
2019-01-27T10:21:22.828Z,11.07
2019-01-27T10:23:58.320Z,11.03
2019-01-27T10:26:46.691Z,10.73
2019-01-27T10:29:35.658Z,11.77
2019-01-27T10:32:24.339Z,13.30
2019-01-27T10:35:01.982Z,12.80
2019-01-27T10:37:52.810Z,13.97
2019-01-27T10:40:39.935Z,14.40
2019-01-27T10:43:20.491Z,15.00
2019-01-27T10:46:11.601Z,14.13
2019-01-27T10:49:18.202Z,13.20
2019-01-27T10:51:53.331Z,12.17
2019-01-27T10:54:43.885Z,13.17
2019-01-27T10:57:18.404Z,12.23
2019-01-27T11:00:25.069Z,11.67
2019-01-27T11:03:07.152Z,12.40
2019-01-27T11:05:47.510Z,11.63
2019-01-27T11:08:34.547Z,14.53
2019-01-27T11:11:26.019Z,13.20
2019-01-27T11:14:23.381Z,13.00
2019-01-27T11:17:20.894Z,13.00
2019-01-27T11:20:03.269Z,12.40
2019-01-27T11:22:54.474Z,15.33
2019-01-27T11:25:42.476Z,15.93
2019-01-27T11:28:19.382Z,14.33
2019-01-27T11:30:57.847Z,16.53
2019-01-27T11:33:43.967Z,15.50
2019-01-27T11:36:34.984Z,14.53
2019-01-27T11:39:24.409Z,13.80
2019-01-27T11:42:15.625Z,14.93
2019-01-27T11:45:03.753Z,13.60
2019-01-27T11:47:42.759Z,15.40
2019-01-27T11:50:35.118Z,15.33
2019-01-27T11:53:06.941Z,14.73
2019-01-27T11:55:36.320Z,15.10
2019-01-27T11:58:05.785Z,14.93
2019-01-27T12:00:44.283Z,15.10
2019-01-27T12:03:13.634Z,13.57
2019-01-27T12:05:43.159Z,13.77
2019-01-27T12:08:12.609Z,11.43
2019-01-27T12:10:42.064Z,11.53
2019-01-27T12:13:11.633Z,11.77
2019-01-27T12:15:41.081Z,12.27
2019-01-27T12:18:10.528Z,12.03
2019-01-27T12:20:39.975Z,11.27
2019-01-27T12:23:09.375Z,12.27
2019-01-27T12:25:38.770Z,11.97
2019-01-27T12:28:08.102Z,11.37
2019-01-27T12:30:37.656Z,12.20
2019-01-27T12:33:07.069Z,11.73
2019-01-27T12:35:36.382Z,12.80
2019-01-27T12:38:06.187Z,12.30
2019-01-27T12:40:35.585Z,12.90
2019-01-27T12:43:05.279Z,13.37
2019-01-27T12:45:34.829Z,14.20
2019-01-27T12:48:04.558Z,13.67
2019-01-27T12:50:33.907Z,14.30
2019-01-27T12:53:05.714Z,14.40
2019-01-27T12:55:35.073Z,14.60
2019-01-27T12:58:06.342Z,14.23
2019-01-27T13:00:44.502Z,13.77
2019-01-27T13:03:13.913Z,12.57
2019-01-27T13:05:43.346Z,12.77
2019-01-27T13:08:12.848Z,12.80
2019-01-27T13:10:42.226Z,11.87
2019-01-27T13:13:12.188Z,13.97
2019-01-27T13:15:41.638Z,13.80
2019-01-27T13:18:11.022Z,15.17
2019-01-27T13:20:40.559Z,15.00
2019-01-27T13:23:11.209Z,13.77
2019-01-27T13:25:41.135Z,15.07
2019-01-27T13:28:10.584Z,16.23
2019-01-27T13:30:40.415Z,16.00
2019-01-27T13:33:10.211Z,15.93
2019-01-27T13:35:39.724Z,15.13
2019-01-27T13:38:09.173Z,15.70
2019-01-27T13:40:38.698Z,16.60
2019-01-27T13:43:08.242Z,15.93
2019-01-27T13:45:39.025Z,16.00
2019-01-27T13:48:08.417Z,18.67
2019-01-27T13:50:37.835Z,17.57
2019-01-27T13:53:07.294Z,17.90
2019-01-27T13:55:36.858Z,15.83
2019-01-27T13:58:07.414Z,16.47
2019-01-27T14:00:38.022Z,17.70
2019-01-27T14:03:07.548Z,17.80
2019-01-27T14:05:37.285Z,18.10
2019-01-27T14:08:06.965Z,17.20
2019-01-27T14:10:36.601Z,18.43
2019-01-27T14:13:06.070Z,17.03
2019-01-27T14:15:36.002Z,16.90
2019-01-27T14:18:06.150Z,19.17
2019-01-27T14:20:35.782Z,17.70
2019-01-27T14:23:05.485Z,17.27
2019-01-27T14:25:34.981Z,17.37
2019-01-27T14:28:05.043Z,18.10
2019-01-27T14:30:37.277Z,17.27
2019-01-27T14:33:06.838Z,18.00
2019-01-27T14:35:36.372Z,17.87
2019-01-27T14:38:05.897Z,17.67
2019-01-27T14:40:35.384Z,16.80
2019-01-27T14:43:05.161Z,18.07
2019-01-27T14:45:34.767Z,18.53
2019-01-27T14:48:04.613Z,18.23
2019-01-27T14:50:36.835Z,18.43
2019-01-27T14:53:07.516Z,18.70
2019-01-27T14:55:37.037Z,18.83
2019-01-27T14:58:06.776Z,18.63
2019-01-27T15:00:38.337Z,20.57
2019-01-27T15:03:08.736Z,20.83
2019-01-27T15:05:39.403Z,21.80
2019-01-27T15:08:09.414Z,21.17
2019-01-27T15:10:40.053Z,21.93
2019-01-27T15:13:09.569Z,20.87
2019-01-27T15:15:39.086Z,20.70
2019-01-27T15:18:08.603Z,21.43
2019-01-27T15:20:43.930Z,23.37
2019-01-27T15:23:13.507Z,21.83
2019-01-27T15:25:43.009Z,24.47
2019-01-27T15:28:12.595Z,22.00
2019-01-27T15:30:42.069Z,22.50
2019-01-27T15:33:11.630Z,22.30
2019-01-27T15:35:41.093Z,20.90
2019-01-27T15:38:10.546Z,21.90
2019-01-27T15:40:40.141Z,21.20
2019-01-27T15:43:09.593Z,20.27
2019-01-27T15:45:39.306Z,20.00
2019-01-27T15:48:08.887Z,20.13
2019-01-27T15:50:38.534Z,20.23
2019-01-27T15:53:08.130Z,20.23
2019-01-27T15:55:37.983Z,20.47
2019-01-27T15:58:08.174Z,19.13
2019-01-27T16:00:37.860Z,19.70
2019-01-27T16:03:07.409Z,21.73
2019-01-27T16:05:36.808Z,20.23
2019-01-27T16:08:06.419Z,22.10
2019-01-27T16:10:36.008Z,19.50
2019-01-27T16:13:05.696Z,18.97
2019-01-27T16:15:35.623Z,17.53
2019-01-27T16:18:06.263Z,18.33
2019-01-27T16:20:35.724Z,17.23
2019-01-27T16:23:22.121Z,17.77
2019-01-27T16:25:51.667Z,18.73
2019-01-27T16:28:21.137Z,20.07
2019-01-27T16:31:21.686Z,21.47
2019-01-27T16:34:22.068Z,21.37
2019-01-27T16:36:52.089Z,23.30
2019-01-27T16:39:21.743Z,22.30
2019-01-27T16:41:52.505Z,20.70
2019-01-27T16:44:24.184Z,23.10
2019-01-27T16:46:53.726Z,22.33
2019-01-27T16:49:23.165Z,23.43
2019-01-27T16:51:52.637Z,23.77
2019-01-27T16:54:22.169Z,21.87
2019-01-27T16:56:51.577Z,22.40
2019-01-27T16:59:21.118Z,22.47
2019-01-27T17:01:50.602Z,21.77
2019-01-27T17:04:20.027Z,20.77
2019-01-27T17:06:49.598Z,19.73
2019-01-27T17:09:19.107Z,20.40
2019-01-27T17:11:54.030Z,20.43
2019-01-27T17:14:23.518Z,18.03
2019-01-27T17:16:52.963Z,19.87
2019-01-27T17:19:22.486Z,19.57
2019-01-27T17:21:51.974Z,19.00
2019-01-27T17:24:21.599Z,19.00
2019-01-27T17:26:51.518Z,19.00
2019-01-27T17:29:21.040Z,19.67
2019-01-27T17:31:50.493Z,19.87
2019-01-27T17:34:20.015Z,18.57
2019-01-27T17:36:49.518Z,20.23
2019-01-27T17:39:19.010Z,19.80
2019-01-27T17:41:48.685Z,18.90
2019-01-27T17:44:18.249Z,20.43
2019-01-27T17:46:48.771Z,18.80
2019-01-27T17:49:18.531Z,19.80
2019-01-27T17:51:47.900Z,20.83
2019-01-27T17:54:17.236Z,19.07
2019-01-27T17:56:53.034Z,20.40
2019-01-27T17:59:37.021Z,18.17
2019-01-27T18:02:34.437Z,19.20
2019-01-27T18:05:17.723Z,20.10
2019-01-27T18:08:08.991Z,21.10
2019-01-27T18:10:49.964Z,20.70
2019-01-27T18:13:30.275Z,20.93
2019-01-27T18:16:01.252Z,19.40
2019-01-27T18:18:30.708Z,20.63
2019-01-27T18:21:00.150Z,20.67
2019-01-27T18:23:29.579Z,21.43
2019-01-27T18:25:59.031Z,21.77
2019-01-27T18:28:28.458Z,21.43
2019-01-27T18:30:57.977Z,20.50
2019-01-27T18:33:27.713Z,20.83
2019-01-27T18:35:57.263Z,21.50
2019-01-27T18:38:27.033Z,20.83
2019-01-27T18:40:56.688Z,20.93
2019-01-27T18:43:26.205Z,20.67
2019-01-27T18:45:55.632Z,20.43
2019-01-27T18:48:25.056Z,23.43
2019-01-27T18:50:54.556Z,21.07
2019-01-27T18:53:55.844Z,20.77
2019-01-27T18:56:46.983Z,21.97
2019-01-27T18:59:32.678Z,23.13
2019-01-27T19:02:20.676Z,23.20
2019-01-27T19:05:11.977Z,21.73
2019-01-27T19:07:51.059Z,21.30
2019-01-27T19:10:38.161Z,20.93
2019-01-27T19:13:19.738Z,20.40
2019-01-27T19:16:06.865Z,19.57
2019-01-27T19:18:55.033Z,17.27
2019-01-27T19:21:42.090Z,17.53
2019-01-27T19:24:28.273Z,17.23
2019-01-27T19:27:27.971Z,17.30
2019-01-27T19:30:04.563Z,15.83
2019-01-27T19:32:47.532Z,16.23
2019-01-27T19:35:26.767Z,14.90
2019-01-27T19:38:04.437Z,16.40
2019-01-27T19:40:41.256Z,15.00
2019-01-27T19:43:35.509Z,13.83
2019-01-27T19:46:23.077Z,14.30
2019-01-27T19:49:02.082Z,13.90
2019-01-27T19:51:39.248Z,14.50
2019-01-27T19:54:45.891Z,14.43
2019-01-27T19:57:52.422Z,14.90
2019-01-27T20:00:46.770Z,14.97
2019-01-27T20:03:40.816Z,13.23
2019-01-27T20:06:35.060Z,14.23
2019-01-27T20:09:25.790Z,14.43
2019-01-27T20:12:20.018Z,14.03
2019-01-27T20:15:17.438Z,14.40
2019-01-27T20:18:06.287Z,15.00
2019-01-27T20:20:45.504Z,14.90
2019-01-27T20:23:45.772Z,14.80
2019-01-27T20:26:33.014Z,14.20
2019-01-27T20:29:14.038Z,14.70
2019-01-27T20:32:14.594Z,14.17
2019-01-27T20:35:08.022Z,14.83
2019-01-27T20:37:59.375Z,15.47
2019-01-27T20:40:44.492Z,15.30
2019-01-27T20:43:32.785Z,16.03
2019-01-27T20:46:19.697Z,15.73
2019-01-27T20:49:13.951Z,15.53
2019-01-27T20:51:59.902Z,14.23
2019-01-27T20:54:42.683Z,14.23
2019-01-27T20:57:33.886Z,13.90
2019-01-27T21:00:27.964Z,15.20
2019-01-27T21:03:22.211Z,14.93
2019-01-27T21:06:09.266Z,13.63
2019-01-27T21:08:47.619Z,13.03
2019-01-27T21:11:48.122Z,12.33
2019-01-27T21:14:25.918Z,12.23
2019-01-27T21:17:32.556Z,12.07
2019-01-27T21:20:06.321Z,11.53
2019-01-27T21:22:35.661Z,11.67
2019-01-27T21:25:05.622Z,10.90
2019-01-27T21:27:34.995Z,8.80
2019-01-27T21:30:05.811Z,9.73
2019-01-27T21:32:35.296Z,8.47
2019-01-27T21:35:05.563Z,7.80
2019-01-27T21:37:34.954Z,8.57
2019-01-27T21:40:05.512Z,8.03
2019-01-27T21:42:34.969Z,7.77
2019-01-27T21:45:04.880Z,8.13
2019-01-27T21:47:34.212Z,8.43
2019-01-27T21:50:04.027Z,8.23
2019-01-27T21:52:35.635Z,8.47
2019-01-27T21:55:07.279Z,8.50
2019-01-27T21:57:37.369Z,8.50
2019-01-27T22:00:10.098Z,8.00
2019-01-27T22:02:40.596Z,8.13
2019-01-27T22:05:11.125Z,8.07
2019-01-27T22:07:41.464Z,7.50
2019-01-27T22:10:12.928Z,7.23
2019-01-27T22:12:43.743Z,7.40
2019-01-27T22:15:14.876Z,7.77
2019-01-27T22:17:45.770Z,7.70
2019-01-27T22:20:17.149Z,7.20
2019-01-27T22:22:47.546Z,6.70
2019-01-27T22:25:18.443Z,7.13
2019-01-27T22:27:48.846Z,7.70
2019-01-27T22:30:20.706Z,8.63
2019-01-27T22:32:53.191Z,8.83
2019-01-27T22:35:23.872Z,8.97
2019-01-27T22:37:54.238Z,8.73
2019-01-27T22:40:24.368Z,8.73
2019-01-27T22:42:54.843Z,8.50
2019-01-27T22:45:24.860Z,8.90
2019-01-27T22:47:54.304Z,8.63
2019-01-27T22:50:24.494Z,8.80
2019-01-27T22:52:55.013Z,8.67
2019-01-27T22:55:25.054Z,9.10
2019-01-27T22:57:55.523Z,9.30
2019-01-27T23:00:46.600Z,8.17
2019-01-27T23:03:16.566Z,7.53
2019-01-27T23:05:46.255Z,7.73
2019-01-27T23:08:16.651Z,8.03
2019-01-27T23:11:05.507Z,7.90
2019-01-27T23:13:34.815Z,8.17
2019-01-27T23:16:04.692Z,7.93
2019-01-27T23:18:34.123Z,9.50
2019-01-27T23:21:03.467Z,10.50
2019-01-27T23:23:32.765Z,10.97
2019-01-27T23:26:02.180Z,10.70
2019-01-27T23:28:31.513Z,9.93
2019-01-27T23:31:00.922Z,8.80
2019-01-27T23:33:30.322Z,9.00
2019-01-27T23:35:59.719Z,8.93
2019-01-27T23:38:29.104Z,8.73
2019-01-27T23:40:58.487Z,8.37
2019-01-27T23:43:27.928Z,7.83
2019-01-27T23:45:57.371Z,8.30
2019-01-27T23:48:26.688Z,8.13
2019-01-27T23:50:56.464Z,9.07
2019-01-27T23:53:26.146Z,9.10
2019-01-27T23:55:55.486Z,8.37
2019-01-27T23:58:24.822Z,8.83
